Time;durP1;ratioP1;P1;durP2;ratioP2;P2;SDS_P1;SDS_P2;PMS_P1;PMS_P2;Temp;Humidity;BMP_temperature;BMP_pressure;BME280_temperature;BME280_humidity;BME280_pressure;Samples;Min_cycle;Max_cycle;Signal;HPM_P1;HPM_P2
2022/04/26 03:38:22;;;;;;;7.77;6.63;;;14.90;77.60;;;-142.21;100.00;112049.66;5072335;28;20463;-73
2022/04/26 03:40:49;;;;;;;7.20;5.80;;;15.00;77.70;;;-142.21;100.00;112049.66;5070436;28;20463;-73
2022/04/26 03:43:17;;;;;;;8.93;7.20;;;14.90;77.20;;;-142.21;100.00;112049.66;5071644;28;20447;-73
2022/04/26 03:45:44;;;;;;;8.63;7.50;;;14.80;78.10;;;-142.21;100.00;112049.66;5072052;28;20534;-73
2022/04/26 03:48:11;;;;;;;7.93;6.50;;;14.90;78.50;;;-142.21;100.00;112049.66;5071949;28;20454;-74
2022/04/26 03:50:39;;;;;;;7.77;6.10;;;14.80;78.60;;;-142.21;100.00;112049.66;5072525;28;20485;-73
2022/04/26 03:53:06;;;;;;;6.90;5.77;;;14.80;77.20;;;-142.21;100.00;112049.66;5071514;28;20557;-73
2022/04/26 03:55:33;;;;;;;6.53;5.87;;;14.80;77.50;;;-142.21;100.00;112049.66;5072563;28;20443;-73
2022/04/26 03:58:00;;;;;;;7.87;6.40;;;14.90;77.20;;;-142.21;100.00;112049.66;5070561;28;20486;-74
2022/04/26 04:00:27;;;;;;;7.07;6.10;;;15.10;76.30;;;-142.21;100.00;112049.66;5072091;28;20443;-73
2022/04/26 04:02:55;;;;;;;8.17;7.00;;;15.20;76.00;;;-142.21;100.00;112049.66;5072023;28;20502;-73
2022/04/26 04:05:23;;;;;;;8.07;6.77;;;15.20;75.80;;;-142.21;100.00;112049.66;5071960;28;20444;-73
2022/04/26 04:07:51;;;;;;;7.53;6.83;;;15.30;75.50;;;-142.21;100.00;112049.66;5071387;28;20959;-73
2022/04/26 04:10:19;;;;;;;7.77;6.97;;;15.20;75.70;;;-142.21;100.00;112049.66;5065215;28;20466;-73
2022/04/26 04:12:46;;;;;;;8.33;6.90;;;15.10;76.00;;;-142.21;100.00;112049.66;5071666;28;20448;-73
2022/04/26 04:15:13;;;;;;;7.80;7.00;;;15.00;76.30;;;-142.21;100.00;112049.66;5070845;28;20951;-73
2022/04/26 04:17:40;;;;;;;8.90;7.43;;;14.90;77.00;;;-142.21;100.00;112049.66;5071225;28;20486;-73
2022/04/26 04:20:10;;;;;;;8.70;7.80;;;14.90;77.60;;;-142.21;100.00;112049.66;5071878;28;20542;-73
2022/04/26 04:22:37;;;;;;;8.57;7.63;;;14.90;77.60;;;-142.21;100.00;112049.66;5071829;28;20447;-73
2022/04/26 04:25:06;;;;;;;8.30;7.40;;;15.00;77.40;;;-142.21;100.00;112049.66;5071690;28;20527;-73
2022/04/26 04:27:33;;;;;;;7.97;7.17;;;15.10;77.60;;;-142.21;100.00;112049.66;5070305;28;20440;-73
2022/04/26 04:30:02;;;;;;;7.83;7.07;;;15.00;77.30;;;-142.21;100.00;112049.66;5071309;28;20494;-73
2022/04/26 04:32:30;;;;;;;8.53;7.63;;;15.10;77.30;;;-142.21;100.00;112049.66;5071664;28;20550;-73
2022/04/26 04:34:57;;;;;;;9.00;7.30;;;15.10;76.90;;;-142.21;100.00;112049.66;5071586;28;20502;-73
2022/04/26 04:37:25;;;;;;;9.40;7.70;;;15.30;76.40;;;-142.21;100.00;112049.66;5071487;28;20443;-73
2022/04/26 04:39:52;;;;;;;8.90;7.83;;;15.30;76.70;;;-142.21;100.00;112049.66;5071354;28;20538;-73
2022/04/26 04:42:21;;;;;;;10.13;8.17;;;15.10;77.00;;;-142.21;100.00;112049.66;5071435;28;20466;-73
2022/04/26 04:44:48;;;;;;;9.57;8.30;;;15.10;77.40;;;-142.21;100.00;112049.66;5071029;28;20450;-73
2022/04/26 04:47:15;;;;;;;9.37;8.43;;;15.20;77.40;;;-142.21;100.00;112049.66;5071602;28;20949;-73
2022/04/26 04:49:43;;;;;;;10.50;8.87;;;15.30;77.00;;;-142.21;100.00;112049.66;5070651;28;20516;-74
2022/04/26 04:52:10;;;;;;;9.63;8.63;;;15.30;76.40;;;-142.21;100.00;112049.66;5071522;28;20443;-73
2022/04/26 04:54:37;;;;;;;10.23;9.20;;;15.40;76.30;;;-142.21;100.00;112049.66;5074958;28;20449;-73
2022/04/26 04:57:05;;;;;;;10.67;9.30;;;15.30;76.20;;;-142.21;100.00;112049.66;5074853;28;20453;-73
2022/04/26 04:59:34;;;;;;;12.13;9.97;;;15.40;76.70;;;-142.21;100.00;112049.66;5074090;28;20479;-73
2022/04/26 05:02:01;;;;;;;12.17;9.70;;;15.40;76.40;;;-142.21;100.00;112049.66;5074740;28;20533;-73
2022/04/26 05:04:28;;;;;;;10.37;9.17;;;15.40;76.90;;;-142.21;100.00;112049.66;5075496;28;20454;-73
2022/04/26 05:06:55;;;;;;;11.10;9.53;;;15.40;76.70;;;-142.21;100.00;112049.66;5075168;28;20850;-73
2022/04/26 05:09:22;;;;;;;12.40;10.60;;;15.50;76.40;;;-142.21;100.00;112049.66;5075607;28;20443;-74
2022/04/26 05:11:49;;;;;;;11.53;9.40;;;15.60;76.50;;;-142.21;100.00;112049.66;5074810;28;20478;-73
2022/04/26 05:14:17;;;;;;;11.23;9.97;;;15.50;76.10;;;-142.21;100.00;112049.66;5074609;28;20447;-73
2022/04/26 05:16:45;;;;;;;12.40;10.10;;;15.50;76.60;;;-142.21;100.00;112049.66;5075434;28;20486;-73
2022/04/26 05:19:12;;;;;;;12.43;10.40;;;15.50;76.20;;;-142.21;100.00;112049.66;5074586;28;20571;-73
2022/04/26 05:21:39;;;;;;;12.33;10.10;;;15.50;76.20;;;-142.21;100.00;112049.66;5075048;28;20486;-73
2022/04/26 05:26:52;;;;;;;12.93;11.00;;;15.50;76.60;;;-142.21;100.00;112049.66;5073887;28;20514;-73
2022/04/26 05:29:22;;;;;;;12.50;11.20;;;15.60;76.70;;;-142.21;100.00;112049.66;5072911;28;20469;-73
2022/04/26 05:31:51;;;;;;;14.37;11.40;;;15.60;77.50;;;-142.21;100.00;112049.66;5074432;28;20478;-73
2022/04/26 05:34:18;;;;;;;12.20;10.57;;;15.60;76.70;;;-142.21;100.00;112049.66;5073453;28;20475;-73
2022/04/26 05:36:45;;;;;;;12.30;11.00;;;15.60;76.80;;;-142.21;100.00;112049.66;5074809;28;20534;-73
2022/04/26 05:39:13;;;;;;;13.03;11.57;;;15.60;76.70;;;-142.21;100.00;112049.66;5075008;28;20479;-73
2022/04/26 05:41:40;;;;;;;12.40;11.03;;;15.70;76.60;;;-142.21;100.00;112049.66;5074467;28;20803;-73
2022/04/26 05:44:07;;;;;;;12.47;11.03;;;15.70;76.40;;;-142.21;100.00;112049.66;5074510;28;20530;-73
2022/04/26 05:46:34;;;;;;;12.60;10.93;;;15.80;76.10;;;-142.21;100.00;112049.66;5073845;28;21148;-73
2022/04/26 05:49:03;;;;;;;13.10;11.70;;;15.90;75.90;;;-142.21;100.00;112049.66;5073749;28;20935;-73
2022/04/26 05:51:30;;;;;;;13.07;11.67;;;15.90;75.90;;;-142.21;100.00;112049.66;5074209;28;20456;-75
2022/04/26 05:53:57;;;;;;;13.83;11.77;;;16.00;75.80;;;-142.21;100.00;112049.66;5074540;28;20532;-74
2022/04/26 05:56:25;;;;;;;13.87;11.70;;;16.00;75.40;;;-142.21;100.00;112049.66;5073998;28;20802;-74
2022/04/26 05:58:52;;;;;;;15.10;12.07;;;16.00;75.60;;;-142.21;100.00;112049.66;5073650;28;20518;-73
2022/04/26 06:01:22;;;;;;;13.13;11.57;;;16.00;75.60;;;-142.21;100.00;112049.66;5074494;28;20866;-74
2022/04/26 06:03:49;;;;;;;15.23;12.73;;;16.00;75.80;;;-142.21;100.00;112049.66;5073201;28;21202;-73
2022/04/26 06:06:19;;;;;;;15.37;12.70;;;16.00;75.40;;;-142.21;100.00;112049.66;5073543;28;20451;-73
2022/04/26 06:08:46;;;;;;;13.87;11.93;;;16.00;75.40;;;-142.21;100.00;112049.66;5073876;28;20542;-73
2022/04/26 06:11:15;;;;;;;13.57;12.17;;;16.00;74.90;;;-142.21;100.00;112049.66;5073890;28;20547;-73
2022/04/26 06:13:42;;;;;;;13.00;11.40;;;16.00;74.20;;;-142.21;100.00;112049.66;5074425;28;20538;-73
2022/04/26 06:16:14;;;;;;;12.97;11.60;;;16.00;74.50;;;-142.21;100.00;112049.66;5073679;28;20443;-73
2022/04/26 06:18:42;;;;;;;12.87;11.13;;;16.10;74.50;;;-142.21;100.00;112049.66;5074250;28;20513;-74
2022/04/26 06:21:10;;;;;;;12.80;11.43;;;16.20;74.20;;;-142.21;100.00;112049.66;5073577;28;20467;-75
2022/04/26 06:23:39;;;;;;;12.43;11.13;;;16.30;73.90;;;-142.21;100.00;112049.66;5073555;28;20784;-74
2022/04/26 06:26:06;;;;;;;11.53;10.10;;;16.40;73.50;;;-142.21;100.00;112049.66;5073493;28;20479;-74
2022/04/26 06:28:34;;;;;;;12.60;10.40;;;16.40;73.20;;;-142.21;100.00;112049.66;5073619;28;20514;-75
2022/04/26 06:31:02;;;;;;;10.93;9.83;;;16.40;73.30;;;-142.21;100.00;112049.66;5073892;28;20455;-75
2022/04/26 06:33:29;;;;;;;11.17;10.03;;;16.50;73.00;;;-142.21;100.00;112049.66;5074354;28;20443;-75
2022/04/26 06:35:57;;;;;;;10.67;9.27;;;16.60;72.50;;;-142.21;100.00;112049.66;5074725;28;20531;-75
2022/04/26 06:38:26;;;;;;;11.77;10.57;;;16.60;72.00;;;-142.21;100.00;112049.66;5072364;28;20540;-75
2022/04/26 06:40:55;;;;;;;10.73;8.83;;;16.70;72.60;;;-142.21;100.00;112049.66;5074376;28;20471;-74
2022/04/26 06:43:23;;;;;;;10.43;9.43;;;16.70;71.40;;;-142.21;100.00;112049.66;5073191;28;20534;-75
2022/04/26 06:45:50;;;;;;;10.83;9.67;;;16.70;72.20;;;-142.21;100.00;112049.66;5074440;28;20444;-75
2022/04/26 06:48:18;;;;;;;11.30;10.10;;;16.60;72.20;;;-142.21;100.00;112049.66;5072710;28;20958;-75
2022/04/26 06:50:46;;;;;;;12.00;10.50;;;16.60;72.60;;;-142.21;100.00;112049.66;5073715;28;20529;-75
2022/04/26 06:53:13;;;;;;;11.97;10.37;;;16.60;72.50;;;-142.21;100.00;112049.66;5073161;28;20539;-75
2022/04/26 06:55:40;;;;;;;12.43;10.30;;;16.40;71.70;;;-142.21;100.00;112049.66;5073865;28;20451;-75
2022/04/26 06:58:09;;;;;;;11.80;10.60;;;16.40;72.30;;;-142.21;100.00;112049.66;5073587;28;20517;-75
2022/04/26 07:00:37;;;;;;;12.03;10.70;;;16.40;72.70;;;-142.21;100.00;112049.66;5073138;28;20516;-75
2022/04/26 07:03:05;;;;;;;12.30;10.30;;;16.50;72.40;;;-142.21;100.00;112049.66;5072844;28;20475;-75
2022/04/26 07:05:34;;;;;;;11.07;9.93;;;16.60;72.20;;;-142.21;100.00;112049.66;5070840;28;20502;-75
2022/04/26 07:08:01;;;;;;;11.43;10.33;;;16.70;71.80;;;-142.21;100.00;112049.66;5072383;28;21004;-74
2022/04/26 07:10:29;;;;;;;12.13;10.90;;;17.90;68.50;;;-142.21;100.00;112049.66;5073216;28;20481;-75
2022/04/26 07:12:56;;;;;;;11.37;10.17;;;18.90;65.20;;;-142.21;100.00;112049.66;5038079;28;20448;-75
2022/04/26 07:15:26;;;;;;;11.40;10.20;;;19.00;64.10;;;-142.21;100.00;112049.66;5072805;28;20536;-75
2022/04/26 07:17:54;;;;;;;11.13;10.03;;;18.80;64.60;;;-142.21;100.00;112049.66;5071917;28;20943;-75
2022/04/26 07:20:21;;;;;;;10.70;9.60;;;18.60;64.20;;;-142.21;100.00;112049.66;5072756;28;20491;-75
2022/04/26 07:22:49;;;;;;;10.73;9.50;;;18.50;64.40;;;-142.21;100.00;112049.66;5072126;28;20462;-74
2022/04/26 07:25:16;;;;;;;9.43;8.53;;;18.30;65.00;;;-142.21;100.00;112049.66;5072680;28;20526;-75
2022/04/26 07:27:43;;;;;;;10.87;9.77;;;18.30;66.00;;;-142.21;100.00;112049.66;5071659;28;20522;-75
2022/04/26 07:30:11;;;;;;;11.37;10.27;;;18.60;66.70;;;-142.21;100.00;112049.66;5072098;28;20467;-75
2022/04/26 07:35:24;;;;;;;9.00;8.20;;;18.70;65.10;;;-142.21;100.00;112049.66;5072263;28;20430;-74
2022/04/26 07:37:53;;;;;;;8.27;7.43;;;18.50;65.10;;;-142.21;100.00;112049.66;5071983;28;20526;-74
2022/04/26 07:40:21;;;;;;;9.07;7.50;;;18.50;64.60;;;-142.21;100.00;112049.66;5071189;28;20490;-75
2022/04/26 07:42:48;;;;;;;8.67;7.83;;;18.30;64.10;;;-142.21;100.00;112049.66;5072021;28;20489;-74
2022/04/26 07:45:16;;;;;;;9.23;8.33;;;18.30;64.20;;;-142.21;100.00;112049.66;5071189;28;20455;-74
2022/04/26 07:47:45;;;;;;;9.57;8.23;;;18.40;63.60;;;-142.21;100.00;112049.66;5072101;28;20861;-74
2022/04/26 07:50:12;;;;;;;9.37;8.47;;;18.70;64.60;;;-142.21;100.00;112049.66;5071244;28;20463;-74
2022/04/26 07:52:40;;;;;;;7.67;6.93;;;18.90;64.50;;;-142.21;100.00;112049.66;5072276;28;20465;-74
2022/04/26 07:55:08;;;;;;;8.97;8.10;;;19.20;62.70;;;-142.21;100.00;112049.66;5069846;28;20505;-74
2022/04/26 07:57:37;;;;;;;8.10;7.30;;;19.30;64.60;;;-142.21;100.00;112049.66;5072622;28;20471;-74
2022/04/26 08:00:06;;;;;;;7.90;7.07;;;19.10;62.70;;;-142.21;100.00;112049.66;5072295;28;20483;-74
2022/04/26 08:02:34;;;;;;;8.00;7.20;;;19.00;61.40;;;-142.21;100.00;112049.66;5072219;28;21029;-74
2022/04/26 08:05:02;;;;;;;8.00;7.20;;;18.90;63.40;;;-142.21;100.00;112049.66;5070491;28;20542;-74
2022/04/26 08:07:30;;;;;;;7.70;7.00;;;18.90;64.60;;;-142.21;100.00;112049.66;5070166;28;20457;-74
2022/04/26 08:09:57;;;;;;;7.27;6.57;;;19.20;64.30;;;-142.21;100.00;112049.66;5071695;28;20450;-74
2022/04/26 08:12:24;;;;;;;8.43;7.07;;;20.20;59.50;;;-142.21;100.00;112049.66;5071459;28;20446;-75
2022/04/26 08:14:52;;;;;;;7.87;7.07;;;20.10;60.50;;;-142.21;100.00;112049.66;5071352;28;20807;-75
2022/04/26 08:17:19;;;;;;;7.30;6.60;;;19.90;61.20;;;-142.21;100.00;112049.66;5070261;28;20475;-74
2022/04/26 08:19:46;;;;;;;7.70;7.00;;;19.80;60.30;;;-142.21;100.00;112049.66;5070110;28;20515;-75
2022/04/26 08:22:15;;;;;;;7.23;6.50;;;19.60;61.70;;;-142.21;100.00;112049.66;5071449;28;20443;-75
2022/04/26 08:27:28;;;;;;;7.10;6.40;;;19.10;61.00;;;-142.21;100.00;112049.66;5071526;28;20402;-75
2022/04/26 08:29:57;;;;;;;6.63;6.03;;;18.90;60.00;;;-142.21;100.00;112049.66;5071505;28;20468;-74
2022/04/26 08:32:26;;;;;;;8.10;6.80;;;18.70;59.70;;;-142.21;100.00;112049.66;5070922;28;20454;-74
2022/04/26 08:34:54;;;;;;;8.10;7.30;;;18.50;60.20;;;-142.21;100.00;112049.66;5070190;28;20443;-74
2022/04/26 08:37:23;;;;;;;7.87;7.10;;;18.40;61.10;;;-142.21;100.00;112049.66;5071627;28;20444;-75
2022/04/26 08:39:52;;;;;;;7.67;6.90;;;18.30;62.20;;;-142.21;100.00;112049.66;5071417;28;20482;-75
2022/04/26 08:42:36;;;;;;;6.97;6.30;;;18.20;63.70;;;-142.21;100.00;112049.66;5071421;28;20439;-75
2022/04/26 08:45:08;;;;;;;8.47;7.63;;;18.10;64.20;;;-142.21;100.00;112049.66;5072125;28;20431;-75
2022/04/26 08:53:10;;;;;;;7.33;6.63;;;17.80;65.90;;;-142.21;100.00;112049.66;5070989;28;20447;-75
2022/04/26 08:55:44;;;;;;;7.67;6.97;;;17.90;63.30;;;-142.21;100.00;112049.66;5072065;28;20502;-74
2022/04/26 08:58:12;;;;;;;7.63;6.83;;;18.20;62.30;;;-142.21;100.00;112049.66;5071374;28;20939;-74
2022/04/26 09:00:41;;;;;;;7.60;6.50;;;19.00;61.40;;;-142.21;100.00;112049.66;5071594;28;20479;-74
2022/04/26 09:03:11;;;;;;;6.73;6.03;;;19.30;60.00;;;-142.21;100.00;112049.66;5058158;28;20863;-74
2022/04/26 09:05:38;;;;;;;6.70;6.10;;;19.60;59.80;;;-142.21;100.00;112049.66;5051498;28;20464;-74
2022/04/26 09:08:32;;;;;;;6.47;5.87;;;19.50;59.10;;;-142.21;100.00;112049.66;5064089;28;20769;-74
2022/04/26 09:11:00;;;;;;;6.83;6.13;;;19.20;59.40;;;-142.21;100.00;112049.66;5055711;28;20448;-74
2022/04/26 09:13:27;;;;;;;6.60;6.00;;;18.90;60.80;;;-142.21;100.00;112049.66;5071492;28;20443;-74
2022/04/26 09:15:58;;;;;;;7.10;6.40;;;18.70;60.70;;;-142.21;100.00;112049.66;5071613;28;20526;-74
2022/04/26 09:18:29;;;;;;;8.13;6.37;;;18.60;60.30;;;-142.21;100.00;112049.66;5070926;28;20541;-74
2022/04/26 09:20:58;;;;;;;7.47;6.07;;;18.50;60.00;;;-142.21;100.00;112049.66;5071214;28;20494;-74
2022/04/26 09:23:27;;;;;;;7.53;6.20;;;18.50;60.00;;;-142.21;100.00;112049.66;5070517;28;20455;-74
2022/04/26 09:26:10;;;;;;;7.17;6.47;;;18.50;60.80;;;-142.21;100.00;112049.66;5070865;28;20487;-74
2022/04/26 09:28:39;;;;;;;7.20;6.50;;;18.40;58.40;;;-142.21;100.00;112049.66;5036080;28;20486;-75
2022/04/26 09:31:18;;;;;;;8.23;7.03;;;18.20;60.50;;;-142.21;100.00;112049.66;5070129;28;20465;-74
2022/04/26 09:33:49;;;;;;;7.80;6.70;;;18.20;60.20;;;-142.21;100.00;112049.66;5070553;28;20427;-74
2022/04/26 09:36:20;;;;;;;7.97;7.20;;;18.10;59.80;;;-142.21;100.00;112049.66;5070821;28;20504;-74
2022/04/26 09:38:55;;;;;;;8.43;7.00;;;18.10;60.10;;;-142.21;100.00;112049.66;5071446;28;20510;-75
2022/04/26 09:41:26;;;;;;;9.40;7.30;;;18.20;60.10;;;-142.21;100.00;112049.66;5073773;28;20463;-75
2022/04/26 09:44:05;;;;;;;6.90;6.20;;;18.20;59.30;;;-142.21;100.00;112049.66;5075122;28;20423;-74
2022/04/26 09:46:52;;;;;;;7.03;5.70;;;18.00;60.40;;;-142.21;100.00;112049.66;5073812;28;20531;-74
2022/04/26 09:49:22;;;;;;;6.17;5.57;;;18.00;59.40;;;-142.21;100.00;112049.66;5074542;28;20822;-75
2022/04/26 09:51:54;;;;;;;5.37;4.77;;;17.80;59.50;;;-142.21;100.00;112049.66;5075504;28;20522;-74
2022/04/26 09:54:22;;;;;;;5.23;4.73;;;17.70;59.80;;;-142.21;100.00;112049.66;5074698;28;20440;-74
2022/04/26 09:56:52;;;;;;;4.77;3.87;;;17.50;61.00;;;-142.21;100.00;112049.66;5074706;28;20475;-75
2022/04/26 09:59:27;;;;;;;4.07;3.30;;;17.40;59.50;;;-142.21;99.20;112049.66;5074825;28;20566;-75
2022/04/26 10:01:57;;;;;;;4.07;3.27;;;17.40;58.70;;;-142.21;100.00;112049.66;5074445;28;20431;-75
2022/04/26 10:04:29;;;;;;;3.57;3.27;;;17.60;59.10;;;-142.21;94.83;112049.66;5074867;28;20460;-75
2022/04/26 10:07:04;;;;;;;4.07;3.17;;;17.60;57.00;;;-142.21;95.48;112049.66;5074936;28;20897;-75
2022/04/26 10:09:31;;;;;;;3.10;2.80;;;17.60;56.60;;;-142.21;96.64;112049.66;5074371;28;20477;-75
2022/04/26 10:12:03;;;;;;;3.67;3.20;;;17.80;57.80;;;-142.21;92.85;112049.66;5074546;28;20871;-75
2022/04/26 10:14:33;;;;;;;3.97;3.20;;;17.90;57.50;;;-142.21;94.50;112049.66;5074646;28;20434;-75
2022/04/26 10:17:01;;;;;;;3.40;2.97;;;18.00;56.70;;;-142.21;90.74;112049.66;5073770;28;20447;-75
2022/04/26 10:19:38;;;;;;;4.30;3.00;;;18.00;55.40;;;-142.21;88.87;112049.66;5074237;28;20487;-75
2022/04/26 10:22:08;;;;;;;4.23;2.90;;;18.10;55.40;;;-142.21;88.55;112049.66;5074599;28;20436;-75
2022/04/26 10:24:36;;;;;;;4.93;2.60;;;18.20;55.70;;;-142.21;88.74;112049.66;5073964;28;20443;-75
2022/04/26 10:27:23;;;;;;;3.50;3.20;;;18.40;55.40;;;-142.21;75.23;112049.66;5062507;28;20455;-75
2022/04/26 10:29:50;;;;;;;3.80;3.50;;;18.60;51.50;;;-142.21;79.25;112049.66;5073510;28;20562;-75
2022/04/26 10:32:34;;;;;;;4.07;3.67;;;18.80;53.90;;;-142.21;77.59;112049.66;5073584;28;20939;-75
2022/04/26 10:35:30;;;;;;;4.20;3.30;;;19.10;52.60;;;-142.21;74.25;112049.66;5072457;28;20467;-75
2022/04/26 10:38:15;;;;;;;4.03;3.30;;;19.30;51.20;;;-142.21;72.03;112049.66;5073281;28;20446;-75
2022/04/26 10:41:10;;;;;;;5.57;4.07;;;19.30;50.20;;;-142.21;73.36;112049.66;5073067;28;20847;-75
2022/04/26 10:43:41;;;;;;;5.67;5.07;;;19.20;50.80;;;-142.21;75.22;112049.66;5068911;28;20459;-75
2022/04/26 10:46:13;;;;;;;5.67;5.07;;;19.40;51.70;;;-142.21;71.36;112049.66;5073007;28;20957;-75
2022/04/26 10:48:41;;;;;;;6.53;4.87;;;19.70;51.60;;;-142.21;67.05;112049.66;5072601;28;20435;-75
2022/04/26 10:51:33;;;;;;;5.40;4.90;;;19.90;51.30;;;-142.21;67.81;112049.66;5072980;28;20447;-75
2022/04/26 10:54:00;;;;;;;5.17;4.67;;;20.20;50.70;;;-142.21;71.17;112049.66;5073819;28;20837;-75
2022/04/26 10:56:27;;;;;;;6.90;5.77;;;20.20;51.30;;;-142.21;75.88;112049.66;5073590;28;20932;-75
2022/04/26 10:58:56;;;;;;;5.70;5.20;;;20.10;51.50;;;-142.21;76.40;112049.66;5073702;28;20447;-75
2022/04/26 11:01:25;;;;;;;5.87;5.27;;;19.70;52.10;;;-142.21;80.62;112049.66;5072676;28;20479;-75
2022/04/26 11:03:53;;;;;;;6.53;5.20;;;19.50;52.60;;;-142.21;86.04;112049.66;5038258;28;20471;-75
2022/04/26 11:06:34;;;;;;;5.63;4.90;;;19.30;53.80;;;-142.21;91.57;112049.66;5072854;28;20543;-74
2022/04/26 11:09:11;;;;;;;6.17;5.57;;;19.10;54.90;;;-142.21;87.76;112049.66;5073414;28;20434;-74
2022/04/26 11:11:50;;;;;;;7.67;6.27;;;18.70;53.20;;;-142.21;92.48;112049.66;5073203;28;20450;-74
2022/04/26 11:14:20;;;;;;;6.40;5.13;;;18.30;55.30;;;-142.21;97.79;112049.66;5072724;28;20479;-74
2022/04/26 11:16:59;;;;;;;6.50;5.77;;;17.90;55.60;;;-142.21;100.00;112049.66;5072991;28;20816;-74
2022/04/26 11:19:29;;;;;;;7.23;5.77;;;17.50;56.70;;;-142.21;100.00;112049.66;5052517;28;20535;-75
2022/04/26 11:21:57;;;;;;;6.37;5.77;;;17.20;57.60;;;-142.21;100.00;112049.66;5053310;28;20439;-74
2022/04/26 11:29:55;;;;;;;5.17;3.40;;;16.00;62.40;;;-142.21;100.00;112049.66;5072844;28;20466;-74
2022/04/26 11:32:30;;;;;;;2.50;2.30;;;15.80;63.30;;;-142.21;100.00;112049.66;5072408;28;20446;-74
2022/04/26 11:34:57;;;;;;;2.60;2.40;;;15.70;63.10;;;-142.21;100.00;112049.66;5072753;28;20443;-74
2022/04/26 11:37:25;;;;;;;2.57;2.37;;;15.50;63.70;;;-142.21;100.00;112049.66;5072710;28;20444;-74
2022/04/26 11:39:52;;;;;;;2.73;2.20;;;15.40;63.60;;;-142.21;100.00;112049.66;5071698;28;20490;-74
2022/04/26 11:42:21;;;;;;;2.47;2.23;;;15.30;63.80;;;-142.21;100.00;112049.66;5072798;28;20439;-74
2022/04/26 11:45:01;;;;;;;2.40;2.20;;;15.20;65.80;;;-142.21;100.00;112049.66;5070563;28;20450;-74
2022/04/26 11:47:40;;;;;;;2.90;2.50;;;15.10;66.10;;;-142.21;100.00;112049.66;5072843;28;20458;-74
2022/04/26 11:50:20;;;;;;;3.17;2.50;;;15.10;66.90;;;-142.21;100.00;112049.66;5072229;28;20482;-74
2022/04/26 11:52:49;;;;;;;2.70;2.50;;;15.20;64.50;;;-142.21;100.00;112049.66;5071863;28;20435;-74
2022/04/26 11:55:25;;;;;;;2.67;2.23;;;15.40;66.50;;;-142.21;100.00;112049.66;5072609;28;20451;-74
2022/04/26 11:57:54;;;;;;;3.27;2.73;;;15.60;64.30;;;-142.21;100.00;112049.66;5071574;28;20485;-74
2022/04/26 12:00:23;;;;;;;3.97;2.93;;;15.90;64.70;;;-142.21;100.00;112049.66;5071784;28;20951;-74
2022/04/26 12:02:51;;;;;;;2.67;2.47;;;16.20;64.70;;;-142.21;100.00;112049.66;5051090;28;20447;-74
2022/04/26 12:05:22;;;;;;;2.30;2.10;;;16.40;62.40;;;-142.21;100.00;112049.66;5050867;28;20517;-74
2022/04/26 12:07:51;;;;;;;2.87;2.60;;;16.60;62.60;;;-142.21;100.00;112049.66;5050753;28;20444;-74
2022/04/26 12:10:34;;;;;;;2.30;2.13;;;16.70;63.20;;;-142.21;100.00;112049.66;5052488;28;20860;-75
2022/04/26 12:13:03;;;;;;;2.53;2.20;;;16.90;61.50;;;-142.21;100.00;112049.66;5051824;28;20488;-74
2022/04/26 12:15:34;;;;;;;2.43;2.23;;;17.00;63.10;;;-142.21;100.00;112049.66;5075148;28;20452;-74
2022/04/26 12:18:11;;;;;;;2.40;2.20;;;17.40;64.60;;;-142.21;100.00;112049.66;5071822;28;20428;-74
2022/04/26 12:20:57;;;;;;;2.87;1.90;;;17.90;62.80;;;-142.21;100.00;112049.66;5072123;28;20540;-74
2022/04/26 12:23:26;;;;;;;2.40;2.00;;;18.10;62.10;;;-142.21;99.44;112049.66;5072446;28;20455;-74
2022/04/26 12:25:57;;;;;;;2.37;2.17;;;18.40;61.20;;;-142.21;87.62;112049.66;5071734;28;20447;-75
2022/04/26 12:28:26;;;;;;;2.57;2.37;;;18.70;57.10;;;-142.21;92.25;112049.66;5071623;28;20574;-75
2022/04/26 12:30:55;;;;;;;2.73;2.53;;;18.80;57.70;;;-142.21;97.50;112049.66;5070898;28;20436;-75
2022/04/26 12:33:29;;;;;;;2.90;2.60;;;18.90;60.00;;;-142.21;91.95;112049.66;5071631;28;20461;-75
2022/04/26 12:36:03;;;;;;;3.10;2.80;;;18.90;58.00;;;-142.21;89.53;112049.66;5071901;28;20431;-75
2022/04/26 12:38:31;;;;;;;2.60;2.40;;;18.70;57.80;;;-142.21;91.86;112049.66;5072118;28;20988;-75
2022/04/26 12:41:05;;;;;;;2.60;2.40;;;18.70;58.80;;;-142.21;85.87;112049.66;5071715;28;20485;-75
2022/04/26 12:43:34;;;;;;;2.80;2.60;;;18.80;57.90;;;-142.21;93.24;112049.66;5071981;28;20426;-75
2022/04/26 12:46:06;;;;;;;3.17;2.87;;;18.80;59.70;;;-142.21;91.95;112049.66;5071770;28;20454;-75
2022/04/26 12:51:25;;;;;;;4.00;3.60;;;18.80;60.80;;;-142.21;100.00;112049.66;5071126;28;21038;-75
2022/04/26 12:53:54;;;;;;;3.50;3.20;;;18.80;61.00;;;-142.21;97.31;112049.66;5071591;28;20930;-75
2022/04/26 12:56:25;;;;;;;2.83;2.63;;;18.90;59.50;;;-142.21;98.48;112049.66;5070946;28;20474;-75
2022/04/26 12:58:52;;;;;;;3.23;2.67;;;18.80;60.30;;;-142.21;95.06;112049.66;5071690;28;20527;-75
2022/04/26 13:01:21;;;;;;;2.50;2.30;;;18.80;59.10;;;-142.21;94.84;112049.66;5071142;28;20579;-75
2022/04/26 13:03:49;;;;;;;2.87;2.63;;;18.70;59.10;;;-142.21;97.31;112049.66;5071699;28;20463;-75
2022/04/26 13:06:19;;;;;;;2.30;2.10;;;18.70;59.90;;;-142.21;94.51;112049.66;5070812;28;20446;-75
2022/04/26 13:08:49;;;;;;;2.20;2.00;;;18.90;58.90;;;-142.21;90.29;112049.66;5071771;28;20499;-75
2022/04/26 13:11:18;;;;;;;2.60;2.40;;;18.90;57.70;;;-142.21;86.64;112049.66;5070174;28;20450;-75
2022/04/26 13:13:49;;;;;;;2.57;2.17;;;19.00;55.80;;;-142.21;89.94;112049.66;5072311;28;20448;-75
2022/04/26 13:16:17;;;;;;;8.27;3.47;;;19.00;56.90;;;-142.21;89.30;112049.66;5075460;28;20427;-75
2022/04/26 13:18:46;;;;;;;2.50;2.30;;;19.00;57.30;;;-142.21;88.98;112049.66;5074937;28;20447;-75
2022/04/26 13:21:14;;;;;;;2.23;2.03;;;19.30;57.50;;;-142.21;86.07;112049.66;5075663;28;20494;-75
2022/04/26 13:23:43;;;;;;;2.43;2.20;;;19.30;56.70;;;-142.21;85.18;112049.66;5074771;28;20447;-75
2022/04/26 13:26:10;;;;;;;3.47;2.20;;;19.40;56.50;;;-142.21;75.95;112049.66;5074807;28;20497;-75
2022/04/26 13:28:37;;;;;;;2.37;2.17;;;19.30;55.10;;;-142.21;83.37;112049.66;5074397;28;21085;-75
2022/04/26 13:31:04;;;;;;;2.33;2.13;;;19.20;55.60;;;-142.21;88.79;112049.66;5074276;28;20446;-75
2022/04/26 13:33:32;;;;;;;2.80;2.60;;;19.10;57.10;;;-142.21;91.90;112049.66;5074753;28;20528;-75
2022/04/26 13:36:00;;;;;;;2.60;2.40;;;19.10;57.00;;;-142.21;88.36;112049.66;5075347;28;20538;-74
2022/04/26 13:38:28;;;;;;;2.40;2.20;;;19.10;57.10;;;-142.21;88.52;112049.66;5075192;28;20534;-75
2022/04/26 13:40:59;;;;;;;2.40;2.20;;;19.10;56.50;;;-142.21;89.85;112049.66;5074079;28;20533;-75
2022/04/26 13:43:26;;;;;;;2.30;2.10;;;19.00;56.50;;;-142.21;87.41;112049.66;5075254;28;20470;-75
2022/04/26 13:45:53;;;;;;;2.37;2.13;;;19.00;56.30;;;-142.21;86.02;112049.66;5074033;28;20935;-75
2022/04/26 13:48:21;;;;;;;2.20;2.00;;;19.10;55.90;;;-142.21;81.91;112049.66;5074778;28;20508;-75
2022/04/26 13:50:48;;;;;;;2.57;2.37;;;19.10;54.70;;;-142.21;86.70;112049.66;5074105;28;20458;-75
2022/04/26 13:53:16;;;;;;;2.20;2.00;;;19.20;55.50;;;-142.21;83.52;112049.66;5074955;28;20591;-75
2022/04/26 13:55:43;;;;;;;3.23;2.27;;;19.20;54.40;;;-142.21;88.45;112049.66;5073556;28;20444;-75
2022/04/26 13:58:11;;;;;;;2.10;1.90;;;19.30;55.60;;;-142.21;89.96;112049.66;5074768;28;20538;-75
2022/04/26 14:00:38;;;;;;;3.17;2.57;;;19.20;55.20;;;-142.21;88.34;112049.66;5074776;28;20483;-75
2022/04/26 14:03:07;;;;;;;2.33;2.13;;;19.20;55.80;;;-142.21;81.15;112049.66;5074265;28;20925;-75